Main page
METAR-TAF:

METAR-TAF

Airports :

General José Antonio Anzoátegui International Airport

Barcelona, Venezuela

latitude: 10-07N, longitude: 064-41W, elevation: 7 m

Current weather observation

The report was made 3 hours and 43 minutes ago, at 20:02 UTC
Wind 11 kt from the North
Temperature 31°C
Humidity 59%
Pressure 1009 hPa

METAR: SVBC 052002Z AUTO 01011KT NCD 31/22 Q1009

Time: 19:45 (23:45 UTC)

Forecast

The report was made 1 hour and 45 minutes ago, at 22:00 UTC
Forecast valid from 06 at 00 UTC to 07 at 00 UTC
Wind 11 kt from the North
Visibility 10 km or more
Broken clouds at a height of 1600 ft
Temporary
from 06 at 00 UTC to 06 at 04 UTC
Wind 4 kt from the South
Visibility: 9000 m
Broken clouds at a height of 1600 ft
light drizzle

TAF: SVBC 052200Z 0600/0700 01011KT 9999 BKN016 TX29/19Z TN25/08Z TEMPO 0600/0604 18004KT 9000 -DZ BKN016

Weather observations and forecasts of more than 4000 airports (METAR and TAF reports).

The available stations are represented by yellow and red dots on the map.

Hover mouse over dot to see the name of the station.

Then click to see weather observations and forecasts.

To change the map : click on the green buttons with a black cross to zoom in, on the green button with a dash to zoom out, or on the green arrows for adjacent maps.


METAR-TAF: